createdAt,value
2022-07-27T00:01:09.845Z,18.86
2022-07-27T00:03:38.401Z,18.67
2022-07-27T00:06:06.417Z,18.58
2022-07-27T00:08:34.793Z,18.65
2022-07-27T00:11:02.744Z,18.54
2022-07-27T00:13:32.286Z,18.55
2022-07-27T00:16:00.410Z,18.54
2022-07-27T00:18:29.651Z,18.58
2022-07-27T00:20:57.420Z,18.66
2022-07-27T00:23:25.340Z,18.76
2022-07-27T00:25:53.121Z,18.79
2022-07-27T00:28:20.922Z,18.84
2022-07-27T00:30:48.704Z,18.81
2022-07-27T00:33:17.900Z,18.78
2022-07-27T00:35:48.089Z,18.83
2022-07-27T00:38:16.575Z,18.72
2022-07-27T00:40:45.126Z,18.51
2022-07-27T00:43:13.470Z,18.37
2022-07-27T00:45:41.737Z,18.26
2022-07-27T00:48:09.595Z,18.48
2022-07-27T00:50:38.618Z,18.34
2022-07-27T00:53:09.110Z,18.31
2022-07-27T00:55:37.757Z,18.18
2022-07-27T00:58:08.744Z,18.07
2022-07-27T01:00:37.745Z,17.94
2022-07-27T01:03:09.215Z,18.00
2022-07-27T01:05:42.332Z,17.99
2022-07-27T01:08:14.803Z,17.90
2022-07-27T01:10:43.768Z,17.71
2022-07-27T01:13:12.930Z,17.86
2022-07-27T01:15:41.983Z,17.93
2022-07-27T01:18:13.132Z,17.66
2022-07-27T01:20:42.559Z,17.50
2022-07-27T01:23:12.009Z,17.10
2022-07-27T01:25:42.589Z,17.21
2022-07-27T01:28:10.429Z,17.22
2022-07-27T01:30:38.193Z,17.17
2022-07-27T01:33:09.035Z,17.28
2022-07-27T01:35:38.969Z,17.23
2022-07-27T01:38:08.114Z,17.22
2022-07-27T01:40:39.749Z,17.32
2022-07-27T01:43:07.924Z,17.41
2022-07-27T01:45:35.964Z,17.50
2022-07-27T01:48:03.853Z,17.73
2022-07-27T01:50:31.902Z,17.86
2022-07-27T01:52:59.784Z,17.95
2022-07-27T01:55:35.714Z,17.84
2022-07-27T01:58:08.340Z,17.75
2022-07-27T02:00:36.822Z,17.64
2022-07-27T02:03:06.065Z,17.54
2022-07-27T02:05:34.228Z,17.42
2022-07-27T02:08:02.068Z,17.35
2022-07-27T02:10:30.095Z,17.35
2022-07-27T02:12:57.181Z,17.48
2022-07-27T02:15:27.999Z,17.53
2022-07-27T02:18:36.421Z,17.60
2022-07-27T02:20:58.757Z,17.56
2022-07-27T02:23:26.531Z,17.60
2022-07-27T02:25:54.586Z,17.63
2022-07-27T02:28:22.402Z,17.57
2022-07-27T02:30:51.577Z,17.55
2022-07-27T02:33:20.086Z,17.51
2022-07-27T02:35:48.892Z,17.44
2022-07-27T02:38:16.659Z,17.35
2022-07-27T02:40:44.768Z,17.32
2022-07-27T02:43:12.956Z,17.37
2022-07-27T02:45:40.727Z,17.47
2022-07-27T02:48:09.803Z,17.37
2022-07-27T02:50:37.670Z,17.44
2022-07-27T02:53:05.505Z,17.32
2022-07-27T02:55:33.447Z,17.10
2022-07-27T02:58:01.749Z,17.05
2022-07-27T03:00:29.694Z,17.20
2022-07-27T03:02:57.513Z,17.31
2022-07-27T03:05:26.759Z,17.45
2022-07-27T03:07:54.527Z,17.22
2022-07-27T03:10:22.413Z,17.16
2022-07-27T03:12:50.209Z,17.20
2022-07-27T03:15:18.033Z,17.28
2022-07-27T03:17:46.125Z,17.32
2022-07-27T03:20:15.619Z,17.36
2022-07-27T03:22:44.776Z,17.44
2022-07-27T03:25:12.679Z,17.38
2022-07-27T03:27:40.535Z,17.27
2022-07-27T03:30:09.684Z,17.14
2022-07-27T03:32:39.128Z,17.38
2022-07-27T03:35:08.549Z,17.40
2022-07-27T03:37:36.491Z,17.36
2022-07-27T03:40:06.763Z,17.28
2022-07-27T03:42:34.741Z,17.34
2022-07-27T03:45:02.923Z,17.50
2022-07-27T03:47:30.792Z,17.46
2022-07-27T03:49:58.556Z,17.50
2022-07-27T03:52:26.475Z,17.47
2022-07-27T03:54:54.353Z,17.52
2022-07-27T03:57:23.528Z,17.58
2022-07-27T03:59:51.358Z,17.62
2022-07-27T04:02:19.388Z,17.65
2022-07-27T04:04:47.246Z,17.63
2022-07-27T04:07:15.216Z,17.53
2022-07-27T04:09:43.254Z,17.45
2022-07-27T04:12:14.535Z,17.36
2022-07-27T04:14:46.792Z,17.59
2022-07-27T04:17:53.497Z,17.68
2022-07-27T04:20:02.717Z,17.69
2022-07-27T04:22:30.606Z,17.53
2022-07-27T04:24:58.474Z,17.75
2022-07-27T04:27:26.507Z,17.66
2022-07-27T04:29:55.759Z,17.51
2022-07-27T04:32:24.394Z,17.33
2022-07-27T04:34:53.211Z,17.51
2022-07-27T04:37:21.182Z,17.60
2022-07-27T04:39:49.426Z,17.46
2022-07-27T04:42:17.428Z,17.26
2022-07-27T04:44:45.368Z,17.41
2022-07-27T04:47:14.679Z,17.72
2022-07-27T04:49:42.488Z,17.79
2022-07-27T04:52:10.279Z,17.74
2022-07-27T04:54:38.235Z,18.37
2022-07-27T04:57:06.102Z,18.39
2022-07-27T04:59:33.899Z,18.14
2022-07-27T05:02:01.764Z,18.22
2022-07-27T05:04:31.054Z,17.61
2022-07-27T05:06:59.146Z,17.77
2022-07-27T05:09:27.014Z,17.69
2022-07-27T05:11:55.109Z,17.59
2022-07-27T05:14:23.334Z,17.68
2022-07-27T05:16:51.445Z,17.71
2022-07-27T05:19:19.300Z,17.90
2022-07-27T05:21:48.411Z,17.84
2022-07-27T05:24:16.308Z,17.89
2022-07-27T05:26:45.267Z,17.79
2022-07-27T05:29:13.325Z,17.83
2022-07-27T05:31:42.114Z,17.98
2022-07-27T05:34:10.855Z,17.84
2022-07-27T05:36:38.613Z,18.13
2022-07-27T05:39:13.257Z,18.27
2022-07-27T05:41:41.500Z,18.14
2022-07-27T05:44:09.399Z,17.97
2022-07-27T05:46:37.330Z,17.99
2022-07-27T05:49:05.876Z,18.10
2022-07-27T05:51:33.865Z,18.03
2022-07-27T05:54:01.744Z,18.09
2022-07-27T05:56:31.086Z,18.16
2022-07-27T05:59:01.640Z,18.29
2022-07-27T06:01:32.969Z,18.15
2022-07-27T06:04:00.892Z,18.24
2022-07-27T06:06:46.597Z,18.05
2022-07-27T06:09:14.987Z,17.95
2022-07-27T06:11:44.636Z,18.17
2022-07-27T06:14:12.625Z,18.15
2022-07-27T06:16:40.549Z,18.41
2022-07-27T06:19:08.641Z,18.05
2022-07-27T06:21:36.628Z,17.64
2022-07-27T06:24:04.986Z,17.76
2022-07-27T06:26:32.813Z,17.95
2022-07-27T06:29:02.011Z,18.08
2022-07-27T06:31:35.570Z,17.75
2022-07-27T06:34:08.164Z,17.73
2022-07-27T06:36:42.477Z,17.86
2022-07-27T06:39:10.653Z,17.89
2022-07-27T06:41:38.692Z,17.72
2022-07-27T06:44:08.051Z,17.83
2022-07-27T06:46:36.799Z,17.90
2022-07-27T06:49:04.638Z,17.89
2022-07-27T06:51:32.746Z,17.95
2022-07-27T06:54:00.519Z,17.75
2022-07-27T06:56:28.307Z,18.04
2022-07-27T06:58:56.724Z,18.40
2022-07-27T07:01:26.679Z,18.48
2022-07-27T07:03:56.181Z,18.64
2022-07-27T07:06:24.809Z,18.57
2022-07-27T07:08:52.699Z,18.44
2022-07-27T07:11:20.993Z,18.66
2022-07-27T07:13:48.973Z,18.68
2022-07-27T07:16:17.359Z,18.88
2022-07-27T07:18:51.724Z,18.63
2022-07-27T07:21:20.604Z,18.59
2022-07-27T07:23:48.427Z,18.53
2022-07-27T07:26:16.236Z,18.87
2022-07-27T07:28:44.222Z,18.86
2022-07-27T07:31:12.150Z,19.16
2022-07-27T07:33:41.410Z,18.92
2022-07-27T07:36:13.400Z,19.24
2022-07-27T07:38:43.022Z,19.69
2022-07-27T07:41:11.019Z,21.50
2022-07-27T07:43:39.813Z,20.81
2022-07-27T07:46:08.686Z,21.77
2022-07-27T07:48:36.649Z,21.90
2022-07-27T07:51:04.670Z,21.15
2022-07-27T07:53:39.183Z,21.19
2022-07-27T07:56:09.208Z,20.61
2022-07-27T07:58:37.149Z,20.45
2022-07-27T08:01:05.049Z,20.12
2022-07-27T08:03:32.990Z,20.51
2022-07-27T08:06:01.321Z,20.44
2022-07-27T08:08:30.187Z,21.12
2022-07-27T08:10:59.399Z,21.48
2022-07-27T08:13:27.366Z,21.39
2022-07-27T08:15:55.340Z,21.45
2022-07-27T08:18:23.312Z,20.64
2022-07-27T08:20:51.178Z,20.68
2022-07-27T08:23:19.136Z,20.26
2022-07-27T08:25:47.284Z,20.85
2022-07-27T08:28:16.689Z,20.62
2022-07-27T08:30:46.579Z,20.68
2022-07-27T08:33:15.754Z,20.28
2022-07-27T08:35:44.477Z,20.69
2022-07-27T08:38:12.652Z,20.38
2022-07-27T08:40:44.530Z,20.17
2022-07-27T08:43:21.836Z,19.89
2022-07-27T08:45:56.765Z,19.40
2022-07-27T08:48:26.100Z,19.15
2022-07-27T08:50:54.411Z,19.35
2022-07-27T08:53:23.470Z,19.21
2022-07-27T08:55:51.489Z,19.33
2022-07-27T08:58:19.499Z,19.67
2022-07-27T09:00:49.923Z,19.64
2022-07-27T09:03:21.689Z,19.66
2022-07-27T09:05:52.318Z,19.75
2022-07-27T09:08:24.194Z,20.10
2022-07-27T09:10:54.557Z,20.12
2022-07-27T09:13:25.363Z,20.07
2022-07-27T09:16:16.920Z,20.15
2022-07-27T09:18:44.120Z,19.77
2022-07-27T09:21:14.714Z,19.81
2022-07-27T09:23:44.293Z,19.62
2022-07-27T09:26:30.661Z,19.77
2022-07-27T09:29:01.697Z,19.90
2022-07-27T09:31:31.110Z,20.06
2022-07-27T09:34:04.021Z,19.93
2022-07-27T09:36:32.320Z,20.05
2022-07-27T09:39:03.862Z,20.46
2022-07-27T09:41:43.355Z,19.92
2022-07-27T09:44:31.153Z,19.59
2022-07-27T09:47:00.999Z,19.70
2022-07-27T09:49:32.894Z,19.20
2022-07-27T09:52:02.844Z,19.22
2022-07-27T09:54:44.224Z,19.08
2022-07-27T09:57:12.291Z,19.37
2022-07-27T09:59:40.248Z,19.84
2022-07-27T10:02:08.869Z,19.54
2022-07-27T10:04:38.249Z,19.70
2022-07-27T10:07:10.874Z,20.00
2022-07-27T10:09:40.984Z,20.14
2022-07-27T10:12:09.740Z,19.95
2022-07-27T10:14:37.773Z,19.61
2022-07-27T10:17:07.554Z,19.68
2022-07-27T10:19:45.825Z,19.70
2022-07-27T10:22:14.273Z,19.42
2022-07-27T10:24:42.273Z,19.67
2022-07-27T10:27:22.184Z,19.83
2022-07-27T10:29:51.649Z,19.62
2022-07-27T10:32:26.154Z,19.67
2022-07-27T10:34:56.483Z,19.74
2022-07-27T10:37:30.839Z,19.95
2022-07-27T10:40:17.732Z,20.38
2022-07-27T10:42:53.528Z,20.04
2022-07-27T10:45:23.234Z,20.20
2022-07-27T10:47:52.572Z,20.41
2022-07-27T10:50:29.763Z,20.65
2022-07-27T10:53:00.311Z,20.25
2022-07-27T10:55:48.162Z,20.10
2022-07-27T10:58:47.759Z,19.64
2022-07-27T11:01:16.767Z,19.55
2022-07-27T11:03:54.238Z,19.62
2022-07-27T11:06:41.970Z,19.72
2022-07-27T11:12:04.790Z,20.31
2022-07-27T11:14:32.825Z,20.98
2022-07-27T11:17:24.492Z,21.02
2022-07-27T11:19:56.956Z,20.51
2022-07-27T11:25:23.796Z,20.97
2022-07-27T11:27:52.512Z,20.32
2022-07-27T11:30:25.165Z,20.44
2022-07-27T11:32:54.607Z,20.39
2022-07-27T11:35:24.107Z,20.20
2022-07-27T11:38:02.406Z,20.27
2022-07-27T11:43:34.056Z,20.54
2022-07-27T11:46:15.596Z,20.68
2022-07-27T11:49:11.032Z,20.51
2022-07-27T11:51:42.725Z,20.35
2022-07-27T11:54:14.205Z,20.43
2022-07-27T11:56:44.398Z,20.44
2022-07-27T11:59:15.222Z,20.05
2022-07-27T12:01:46.603Z,19.75
2022-07-27T12:04:18.775Z,19.23
2022-07-27T12:06:50.144Z,18.69
2022-07-27T12:09:19.505Z,18.50
2022-07-27T12:11:50.357Z,18.45
2022-07-27T12:14:19.074Z,18.83
2022-07-27T12:16:47.114Z,18.70
2022-07-27T12:19:23.850Z,18.34
2022-07-27T12:21:55.366Z,18.35
2022-07-27T12:24:34.704Z,18.65
2022-07-27T12:27:07.533Z,19.03
2022-07-27T12:29:55.528Z,19.35
2022-07-27T12:32:25.130Z,19.25
2022-07-27T12:34:54.696Z,19.66
2022-07-27T12:37:23.348Z,20.12
2022-07-27T12:39:52.552Z,20.45
2022-07-27T12:42:20.492Z,20.29
2022-07-27T12:44:48.523Z,20.69
2022-07-27T12:47:34.154Z,21.04
2022-07-27T12:50:04.657Z,21.70
2022-07-27T12:52:33.846Z,21.41
2022-07-27T12:55:03.910Z,21.77
2022-07-27T12:57:53.967Z,21.95
2022-07-27T13:00:20.395Z,22.27
2022-07-27T13:02:48.320Z,22.07
2022-07-27T13:05:16.571Z,21.74
2022-07-27T13:07:47.747Z,22.12
2022-07-27T13:10:18.796Z,22.24
2022-07-27T13:12:47.842Z,22.04
2022-07-27T13:15:16.833Z,22.52
2022-07-27T13:17:45.883Z,22.07
2022-07-27T13:20:15.171Z,21.78
2022-07-27T13:22:43.570Z,22.23
2022-07-27T13:25:15.505Z,22.66
2022-07-27T13:27:47.085Z,22.05
2022-07-27T13:30:16.389Z,21.87
2022-07-27T13:32:47.155Z,22.32
2022-07-27T13:35:16.633Z,22.27
2022-07-27T13:37:45.133Z,22.57
2022-07-27T13:40:14.199Z,23.08
2022-07-27T13:42:41.953Z,23.26
2022-07-27T13:45:12.186Z,23.58
2022-07-27T13:47:41.360Z,23.71
2022-07-27T13:50:17.106Z,23.30
2022-07-27T13:52:46.704Z,24.35
2022-07-27T13:55:15.675Z,23.98
2022-07-27T13:57:43.674Z,24.55
2022-07-27T14:00:14.922Z,24.47
2022-07-27T14:02:43.314Z,23.67
2022-07-27T14:05:13.034Z,22.70
2022-07-27T14:07:42.541Z,23.54
2022-07-27T14:10:30.154Z,23.95
2022-07-27T14:12:59.225Z,24.00
2022-07-27T14:15:28.872Z,24.15
2022-07-27T14:17:56.755Z,23.74
2022-07-27T14:20:24.833Z,24.02
2022-07-27T14:22:52.806Z,23.53
2022-07-27T14:25:20.645Z,24.13
2022-07-27T14:27:48.519Z,24.60
2022-07-27T14:30:20.764Z,24.28
2022-07-27T14:32:51.315Z,24.59
2022-07-27T14:35:21.683Z,24.85
2022-07-27T14:37:49.790Z,24.29
2022-07-27T14:40:17.621Z,24.33
2022-07-27T14:42:45.429Z,24.21
2022-07-27T14:45:13.383Z,24.99
2022-07-27T14:47:41.320Z,25.43
2022-07-27T14:50:10.736Z,25.40
2022-07-27T14:52:38.805Z,24.91
2022-07-27T14:55:08.039Z,25.16
2022-07-27T14:57:35.915Z,25.37
2022-07-27T15:00:10.214Z,25.30
2022-07-27T15:02:38.440Z,25.31
2022-07-27T15:05:07.759Z,26.08
2022-07-27T15:07:37.069Z,25.82
2022-07-27T15:10:08.237Z,24.38
2022-07-27T15:12:38.023Z,24.84
2022-07-27T15:15:08.444Z,24.42
2022-07-27T15:17:37.662Z,25.02
2022-07-27T15:20:08.196Z,25.90
2022-07-27T15:22:37.840Z,25.51
2022-07-27T15:25:07.560Z,25.37
2022-07-27T15:27:39.959Z,25.47
2022-07-27T15:30:08.838Z,24.50
2022-07-27T15:32:37.089Z,23.42
2022-07-27T15:35:06.733Z,23.49
2022-07-27T15:37:34.645Z,23.83
2022-07-27T15:40:20.336Z,23.30
2022-07-27T15:42:48.248Z,22.20
2022-07-27T15:45:16.432Z,22.11
2022-07-27T15:47:47.424Z,23.43
2022-07-27T15:50:18.433Z,23.38
2022-07-27T15:52:46.217Z,23.65
2022-07-27T15:55:16.646Z,23.71
2022-07-27T15:57:44.925Z,22.48
2022-07-27T16:00:13.874Z,23.32
2022-07-27T16:02:41.688Z,23.92
2022-07-27T16:05:10.192Z,24.36
2022-07-27T16:07:41.419Z,24.09
2022-07-27T16:10:10.680Z,23.77
2022-07-27T16:12:39.893Z,24.18
2022-07-27T16:15:08.946Z,23.90
2022-07-27T16:17:37.670Z,23.57
2022-07-27T16:20:06.930Z,24.27
2022-07-27T16:22:37.928Z,24.34
2022-07-27T16:25:06.662Z,24.48
2022-07-27T16:27:34.550Z,24.07
2022-07-27T16:30:04.924Z,24.56
2022-07-27T16:32:34.233Z,24.55
2022-07-27T16:35:03.516Z,25.19
2022-07-27T16:37:38.105Z,24.50
2022-07-27T16:40:07.412Z,24.51
2022-07-27T16:42:38.089Z,24.62
2022-07-27T16:45:09.478Z,23.90
2022-07-27T16:47:37.417Z,24.41
2022-07-27T16:50:08.612Z,24.67
2022-07-27T16:52:36.578Z,24.78
2022-07-27T16:55:05.321Z,23.45
2022-07-27T16:57:33.224Z,22.17
2022-07-27T17:00:01.189Z,22.06
2022-07-27T17:02:31.215Z,21.37
2022-07-27T17:04:58.953Z,21.05
2022-07-27T17:07:27.252Z,21.36
2022-07-27T17:09:55.111Z,22.08
2022-07-27T17:12:23.537Z,22.27
2022-07-27T17:14:51.802Z,22.62
2022-07-27T17:17:19.663Z,23.22
2022-07-27T17:19:48.950Z,23.41
2022-07-27T17:22:16.815Z,23.13
2022-07-27T17:24:44.798Z,22.77
2022-07-27T17:27:12.645Z,22.39
2022-07-27T17:29:40.753Z,22.51
2022-07-27T17:32:09.262Z,22.63
2022-07-27T17:34:38.102Z,22.87
2022-07-27T17:37:07.272Z,22.39
2022-07-27T17:39:35.409Z,22.09
2022-07-27T17:42:03.382Z,22.21
2022-07-27T17:44:32.296Z,22.61
2022-07-27T17:47:01.114Z,22.64
2022-07-27T17:49:29.339Z,22.64
2022-07-27T17:51:57.375Z,22.59
2022-07-27T17:54:27.352Z,22.64
2022-07-27T17:56:55.191Z,22.23
2022-07-27T17:59:38.869Z,22.13
2022-07-27T18:02:07.409Z,22.01
2022-07-27T18:04:39.213Z,21.79
2022-07-27T18:07:07.757Z,22.05
2022-07-27T18:09:36.988Z,22.28
2022-07-27T18:12:05.497Z,22.19
2022-07-27T18:14:33.294Z,21.93
2022-07-27T18:17:01.386Z,21.73
2022-07-27T18:19:29.547Z,21.55
2022-07-27T18:21:57.488Z,21.34
2022-07-27T18:24:25.350Z,21.10
2022-07-27T18:26:59.361Z,20.70
2022-07-27T18:29:27.316Z,20.49
2022-07-27T18:31:56.696Z,20.08
2022-07-27T18:34:24.954Z,19.99
2022-07-27T18:36:52.817Z,19.74
2022-07-27T18:39:22.178Z,19.38
2022-07-27T18:41:54.795Z,19.11
2022-07-27T18:44:22.543Z,18.65
2022-07-27T18:46:50.321Z,18.41
2022-07-27T18:49:18.426Z,18.03
2022-07-27T18:51:46.655Z,17.69
2022-07-27T18:54:14.348Z,17.65
2022-07-27T18:56:42.130Z,17.37
2022-07-27T18:59:11.562Z,17.27
2022-07-27T19:01:39.857Z,17.14
2022-07-27T19:04:08.165Z,16.96
2022-07-27T19:06:35.975Z,16.73
2022-07-27T19:09:04.976Z,16.50
2022-07-27T19:11:32.936Z,16.45
2022-07-27T19:14:00.703Z,16.34
2022-07-27T19:16:29.959Z,16.07
2022-07-27T19:18:58.788Z,15.65
2022-07-27T19:21:26.555Z,15.46
2022-07-27T19:23:54.956Z,15.39
2022-07-27T19:26:22.864Z,15.29
2022-07-27T19:28:50.872Z,15.18
2022-07-27T19:31:22.485Z,15.11
2022-07-27T19:33:56.192Z,15.04
2022-07-27T19:36:24.215Z,14.84
2022-07-27T19:38:52.091Z,14.94
2022-07-27T19:41:20.206Z,15.04
2022-07-27T19:43:48.179Z,14.78
2022-07-27T19:46:16.167Z,14.73
2022-07-27T19:48:44.040Z,14.64
2022-07-27T19:51:13.339Z,14.49
2022-07-27T19:53:41.225Z,14.49
2022-07-27T19:56:12.103Z,14.39
2022-07-27T19:58:39.881Z,14.35
2022-07-27T20:01:09.358Z,14.23
2022-07-27T20:03:51.997Z,14.13
2022-07-27T20:06:23.773Z,14.05
2022-07-27T20:08:55.704Z,14.03
2022-07-27T20:11:23.638Z,13.86
2022-07-27T20:13:51.450Z,13.83
2022-07-27T20:16:19.628Z,13.80
2022-07-27T20:18:47.406Z,13.78
2022-07-27T20:21:20.763Z,13.87
2022-07-27T20:23:52.802Z,13.87
2022-07-27T20:26:20.595Z,13.78
2022-07-27T20:28:49.841Z,13.62
2022-07-27T20:31:18.592Z,13.58
2022-07-27T20:33:48.068Z,13.70
2022-07-27T20:36:16.385Z,13.76
2022-07-27T20:38:44.400Z,13.76
2022-07-27T20:41:13.488Z,13.81
2022-07-27T20:43:41.341Z,13.85
2022-07-27T20:46:09.251Z,13.94
2022-07-27T20:48:38.263Z,14.04
2022-07-27T20:51:06.366Z,14.03
2022-07-27T20:53:34.192Z,13.99
2022-07-27T20:56:02.101Z,13.86
2022-07-27T20:58:31.618Z,13.78
2022-07-27T21:00:59.854Z,13.64
2022-07-27T21:03:27.646Z,13.49
2022-07-27T21:05:55.647Z,13.36
2022-07-27T21:08:23.386Z,13.17
2022-07-27T21:10:51.230Z,13.05
2022-07-27T21:13:19.109Z,12.93
2022-07-27T21:15:48.404Z,12.87
2022-07-27T21:18:16.176Z,12.75
2022-07-27T21:20:44.115Z,12.61
2022-07-27T21:23:29.810Z,12.52
2022-07-27T21:25:57.702Z,12.52
2022-07-27T21:28:26.310Z,12.41
2022-07-27T21:30:55.472Z,12.42
2022-07-27T21:33:25.713Z,12.44
2022-07-27T21:35:54.409Z,12.49
2022-07-27T21:38:22.201Z,12.60
2022-07-27T21:40:50.159Z,12.68
2022-07-27T21:43:17.965Z,12.58
2022-07-27T21:45:49.482Z,12.37
2022-07-27T21:48:19.353Z,12.51
2022-07-27T21:50:47.137Z,12.38
2022-07-27T21:53:14.873Z,12.26
2022-07-27T21:55:42.670Z,12.47
2022-07-27T21:58:12.248Z,12.49
2022-07-27T22:00:40.549Z,12.48
2022-07-27T22:03:09.271Z,12.44
2022-07-27T22:05:38.448Z,12.25
2022-07-27T22:08:06.292Z,12.06
2022-07-27T22:10:34.127Z,11.86
2022-07-27T22:13:01.981Z,11.97
2022-07-27T22:15:29.779Z,12.13
2022-07-27T22:17:57.705Z,12.21
2022-07-27T22:20:25.464Z,12.21
2022-07-27T22:22:54.574Z,12.36
2022-07-27T22:25:22.520Z,12.35
2022-07-27T22:27:50.601Z,12.32
2022-07-27T22:30:18.515Z,12.02
2022-07-27T22:32:47.151Z,11.89
2022-07-27T22:35:15.698Z,11.83
2022-07-27T22:37:44.424Z,11.60
2022-07-27T22:40:13.831Z,11.83
2022-07-27T22:42:43.909Z,11.82
2022-07-27T22:45:12.717Z,11.59
2022-07-27T22:47:40.481Z,11.69
2022-07-27T22:50:13.331Z,11.79
2022-07-27T22:52:45.958Z,11.71
2022-07-27T22:55:15.175Z,11.67
2022-07-27T22:57:43.013Z,11.74
2022-07-27T23:00:12.398Z,11.60
2022-07-27T23:02:40.212Z,11.42
2022-07-27T23:05:08.668Z,11.53
2022-07-27T23:07:37.991Z,11.71
2022-07-27T23:10:06.672Z,11.50
2022-07-27T23:12:35.766Z,11.48
2022-07-27T23:15:03.619Z,11.46
2022-07-27T23:17:31.634Z,11.38
2022-07-27T23:19:59.416Z,11.35
2022-07-27T23:22:27.173Z,11.44
2022-07-27T23:24:55.128Z,11.42
2022-07-27T23:27:24.291Z,11.30
2022-07-27T23:29:53.369Z,11.23
2022-07-27T23:32:22.114Z,11.26
2022-07-27T23:34:50.423Z,11.17
2022-07-27T23:37:18.590Z,11.12
2022-07-27T23:39:46.377Z,11.01
2022-07-27T23:42:14.169Z,11.10
2022-07-27T23:44:41.962Z,11.09
2022-07-27T23:47:13.188Z,11.06
2022-07-27T23:49:41.233Z,11.13
2022-07-27T23:52:08.985Z,11.11
2022-07-27T23:54:36.870Z,11.15
2022-07-27T23:57:05.142Z,11.03
2022-07-27T23:59:32.925Z,10.99
